SFM weather

Sanford Seacoast Regional Airport
Sanford, Maine, United States

Public forecast

Using degrees Fahrenheit for public forecast. Weather courtesy of forecast.io.

METAR (pilot weather report)

Retrieved 2019/05/24 04:42 UTC (11 minutes ago):

KSFM 240442Z AUTO 00000KT 9SM OVC004 13/13 A2967 RMK AO2 RAE21 CIG 002V006 PNO $

TAF (pilot weather forecast)

Forecast is more than 12 hours old.

Closest forecast is Portsmouth International at Pease Airport, 19.6 nm (36.4 km) SSW. Retrieved 2019/05/23 00:30 UTC (1 day ago):

TAF KPSM 232328Z 2400/2424 16008KT P6SM -SHRA BKN040 TEMPO 2402/2404 5SM -SHRA BR OVC025 FM240600 26008KT P6SM SCT150 FM241300 33016G28KT P6SM BKN040